Time;durP1;ratioP1;P1;durP2;ratioP2;P2;SDS_P1;SDS_P2;PMS_P1;PMS_P2;Temp;Humidity;BMP_temperature;BMP_pressure;BME280_temperature;BME280_humidity;BME280_pressure;Samples;Min_cycle;Max_cycle;Signal;HPM_P1;HPM_P2
2023/12/01 00:00:06;;;;;;;36.85;19.02;;;0.70;99.90;;;;;;5096334;28;20031;-70
2023/12/01 00:02:32;;;;;;;39.47;19.67;;;0.70;99.90;;;;;;5099206;28;20036;-70
2023/12/01 00:04:57;;;;;;;39.05;19.10;;;0.70;99.90;;;;;;5098645;28;20032;-70
2023/12/01 00:07:23;;;;;;;37.85;19.20;;;0.70;99.90;;;;;;5105247;28;20466;-70
2023/12/01 00:09:49;;;;;;;40.97;19.33;;;0.70;99.90;;;;;;5097574;28;20058;-70
2023/12/01 00:12:14;;;;;;;52.13;23.67;;;0.70;99.90;;;;;;5099490;28;20045;-70
2023/12/01 00:14:43;;;;;;;56.15;24.70;;;0.70;99.90;;;;;;5101704;27;20811;-70
2023/12/01 00:17:08;;;;;;;58.95;26.13;;;0.70;99.90;;;;;;5105752;28;20681;-70
2023/12/01 00:19:34;;;;;;;82.07;26.52;;;0.70;99.90;;;;;;5099782;28;20078;-70
2023/12/01 00:22:00;;;;;;;61.03;26.52;;;0.60;99.90;;;;;;5098658;28;20052;-70
2023/12/01 00:24:25;;;;;;;44.83;22.67;;;0.60;99.90;;;;;;5098063;28;20043;-70
2023/12/01 00:26:51;;;;;;;54.60;23.35;;;0.60;99.90;;;;;;5098502;28;20047;-69
2023/12/01 00:29:16;;;;;;;68.03;24.98;;;0.60;99.90;;;;;;5097555;28;20043;-69
2023/12/01 00:31:42;;;;;;;59.90;24.25;;;0.60;99.90;;;;;;5100067;28;20035;-70
2023/12/01 00:34:08;;;;;;;62.25;25.30;;;0.60;99.90;;;;;;5097803;28;20055;-70
2023/12/01 00:36:34;;;;;;;59.60;23.33;;;0.60;99.90;;;;;;5095103;28;20059;-70
2023/12/01 00:39:00;;;;;;;59.92;23.63;;;0.60;99.90;;;;;;5099314;28;20066;-70
2023/12/01 00:41:25;;;;;;;50.17;21.45;;;0.50;99.90;;;;;;5100327;28;20035;-70
2023/12/01 00:43:51;;;;;;;54.03;22.67;;;0.50;99.90;;;;;;5097946;28;20035;-70
2023/12/01 00:46:17;;;;;;;51.85;22.80;;;0.50;99.90;;;;;;5096903;28;20043;-69
2023/12/01 00:48:43;;;;;;;49.97;19.95;;;0.40;99.90;;;;;;5097313;28;20086;-70
2023/12/01 00:51:18;;;;;;;50.33;21.23;;;0.50;99.90;;;;;;5097322;28;20047;-70
2023/12/01 00:53:45;;;;;;;45.95;20.65;;;0.40;99.90;;;;;;5096716;28;20047;-70
2023/12/01 00:56:14;;;;;;;51.35;20.70;;;0.40;99.90;;;;;;5097314;28;20047;-70
2023/12/01 00:58:40;;;;;;;53.75;21.77;;;0.40;99.90;;;;;;5101280;28;20028;-70
2023/12/01 01:01:06;;;;;;;49.05;20.70;;;0.40;99.90;;;;;;5097507;27;20088;-70
2023/12/01 01:03:35;;;;;;;49.63;21.23;;;0.40;99.90;;;;;;5099365;28;20396;-69
2023/12/01 01:06:04;;;;;;;52.17;22.17;;;0.40;99.90;;;;;;5098569;28;20119;-69
2023/12/01 01:08:30;;;;;;;43.00;19.52;;;0.40;99.90;;;;;;5095410;28;20031;-70
2023/12/01 01:10:56;;;;;;;42.13;19.85;;;0.40;99.90;;;;;;5099200;28;20051;-70
2023/12/01 01:13:22;;;;;;;41.80;18.27;;;0.40;99.90;;;;;;5098146;28;20047;-70
2023/12/01 01:15:48;;;;;;;39.90;18.55;;;0.40;99.90;;;;;;5099102;27;20036;-70
2023/12/01 01:18:15;;;;;;;40.60;17.35;;;0.40;99.90;;;;;;5095759;28;20390;-69
2023/12/01 01:20:40;;;;;;;42.17;17.88;;;0.30;99.90;;;;;;5127085;27;20035;-70
2023/12/01 01:23:06;;;;;;;47.47;19.77;;;0.30;99.90;;;;;;5097664;28;20032;-70
2023/12/01 01:25:31;;;;;;;39.90;17.00;;;0.30;99.90;;;;;;5098354;28;20058;-70
2023/12/01 01:27:57;;;;;;;37.63;17.63;;;0.30;99.90;;;;;;5099692;27;20092;-70
2023/12/01 01:30:23;;;;;;;40.30;17.65;;;0.20;99.90;;;;;;5098575;28;20043;-70
2023/12/01 01:32:49;;;;;;;40.88;18.88;;;0.20;99.90;;;;;;5097575;28;20073;-70
2023/12/01 01:35:15;;;;;;;39.47;18.27;;;0.20;99.90;;;;;;5099165;28;20054;-70
2023/12/01 01:37:41;;;;;;;46.10;19.75;;;0.20;99.90;;;;;;5097350;28;20066;-70
2023/12/01 01:40:08;;;;;;;42.63;19.67;;;0.20;99.90;;;;;;5127942;27;20486;-69
2023/12/01 01:42:33;;;;;;;39.42;18.35;;;0.30;99.90;;;;;;5130399;27;20064;-70
2023/12/01 01:44:59;;;;;;;49.78;20.58;;;0.20;99.90;;;;;;5095736;28;20515;-70
2023/12/01 01:47:25;;;;;;;46.10;17.92;;;0.20;99.90;;;;;;5096752;28;20032;-70
2023/12/01 01:49:51;;;;;;;35.75;16.38;;;0.10;99.90;;;;;;5096120;28;20067;-70
2023/12/01 01:52:18;;;;;;;37.55;17.17;;;0.10;99.90;;;;;;5095977;28;20469;-70
2023/12/01 01:54:43;;;;;;;38.38;17.90;;;0.10;99.90;;;;;;5097255;28;20551;-70
2023/12/01 01:57:09;;;;;;;39.67;18.15;;;0.00;99.90;;;;;;5097118;27;20063;-71
2023/12/01 01:59:35;;;;;;;39.38;17.80;;;0.00;99.90;;;;;;5096518;28;20474;-69
2023/12/01 02:02:01;;;;;;;33.33;15.23;;;0.00;99.90;;;;;;5098321;28;20039;-70
2023/12/01 02:04:27;;;;;;;31.52;16.20;;;0.00;99.90;;;;;;5103004;28;20044;-70
2023/12/01 02:06:53;;;;;;;31.75;16.08;;;-0.10;99.90;;;;;;5096016;28;20063;-69
2023/12/01 02:09:18;;;;;;;30.95;14.52;;;-0.10;99.90;;;;;;5096211;28;20036;-70
2023/12/01 02:11:44;;;;;;;30.35;14.80;;;-0.20;99.90;;;;;;5095631;28;20466;-70
2023/12/01 02:14:11;;;;;;;26.77;13.90;;;-0.20;99.90;;;;;;5097451;28;20081;-70
2023/12/01 02:16:45;;;;;;;32.10;14.98;;;-0.20;99.90;;;;;;5093903;28;20032;-70
2023/12/01 02:19:14;;;;;;;26.92;13.95;;;-0.20;99.90;;;;;;5095871;28;20051;-70
2023/12/01 02:21:44;;;;;;;27.48;14.82;;;-0.30;99.90;;;;;;5095431;28;20597;-70
2023/12/01 02:24:10;;;;;;;24.08;13.65;;;-0.30;99.90;;;;;;5096051;28;20118;-70
2023/12/01 02:26:35;;;;;;;25.25;14.68;;;-0.30;99.90;;;;;;5100593;28;20111;-70
2023/12/01 02:29:05;;;;;;;28.70;15.43;;;-0.30;99.90;;;;;;5102298;28;20065;-70
2023/12/01 02:31:31;;;;;;;28.80;16.25;;;-0.40;99.90;;;;;;5101481;28;20480;-70
2023/12/01 02:33:57;;;;;;;28.98;15.63;;;-0.40;99.90;;;;;;5099310;27;20040;-70
2023/12/01 02:36:23;;;;;;;29.65;15.93;;;-0.50;99.90;;;;;;5098123;28;20075;-70
2023/12/01 02:38:49;;;;;;;30.98;16.48;;;-0.50;99.90;;;;;;5104560;28;20040;-70
2023/12/01 02:41:15;;;;;;;31.20;15.52;;;-0.50;99.90;;;;;;5102221;28;20036;-70
2023/12/01 02:43:41;;;;;;;28.35;15.63;;;-0.50;99.90;;;;;;5101954;27;20063;-70
2023/12/01 02:46:07;;;;;;;24.65;14.45;;;-0.50;99.90;;;;;;5100290;28;20040;-69
2023/12/01 02:48:32;;;;;;;22.33;13.20;;;-0.50;99.90;;;;;;5098177;28;20482;-70
2023/12/01 02:50:58;;;;;;;28.92;15.02;;;-0.50;99.90;;;;;;5098998;28;20044;-70
2023/12/01 02:53:24;;;;;;;23.70;14.48;;;-0.60;99.90;;;;;;5102533;28;20055;-70
2023/12/01 02:55:50;;;;;;;25.60;14.68;;;-0.70;99.90;;;;;;5101174;28;20040;-70
2023/12/01 02:58:15;;;;;;;26.92;14.48;;;-0.70;99.90;;;;;;5099283;27;20100;-70
2023/12/01 03:00:44;;;;;;;27.02;14.93;;;-0.80;99.90;;;;;;5101152;28;20048;-70
2023/12/01 03:03:10;;;;;;;27.20;15.15;;;-0.80;99.90;;;;;;5098039;27;20044;-70
2023/12/01 03:05:36;;;;;;;29.83;16.73;;;-0.80;99.90;;;;;;5097045;28;20080;-70
2023/12/01 03:08:01;;;;;;;24.20;15.38;;;-0.90;99.90;;;;;;5098473;28;20389;-70
2023/12/01 03:10:27;;;;;;;27.48;15.25;;;-0.90;99.90;;;;;;5098714;27;20040;-70
2023/12/01 03:12:52;;;;;;;28.85;16.02;;;-0.90;99.90;;;;;;5100594;28;20040;-70
2023/12/01 03:15:20;;;;;;;28.90;16.30;;;-0.80;99.90;;;;;;5100092;28;20154;-70
2023/12/01 03:17:46;;;;;;;30.55;16.45;;;-0.90;99.90;;;;;;5097357;28;20054;-70
2023/12/01 03:20:14;;;;;;;35.72;17.25;;;-0.80;99.90;;;;;;5097917;28;20155;-70
2023/12/01 03:22:42;;;;;;;32.05;17.95;;;-0.80;99.90;;;;;;5099681;27;20067;-70
2023/12/01 03:25:11;;;;;;;34.90;18.40;;;-0.80;99.90;;;;;;5099287;28;20082;-70
2023/12/01 03:27:41;;;;;;;32.65;18.70;;;-0.80;99.90;;;;;;5098095;28;20036;-70
2023/12/01 03:30:15;;;;;;;35.13;18.90;;;-0.90;99.90;;;;;;5103839;28;20046;-70
2023/12/01 03:32:48;;;;;;;35.13;18.88;;;-0.80;99.90;;;;;;5100791;28;20036;-69
2023/12/01 03:35:15;;;;;;;34.90;18.48;;;-0.90;99.90;;;;;;5096974;28;20036;-70
2023/12/01 03:37:42;;;;;;;34.33;18.90;;;-0.90;99.90;;;;;;5100332;28;20055;-70
2023/12/01 03:40:09;;;;;;;30.45;17.08;;;-0.90;99.90;;;;;;5102550;28;20040;-70
2023/12/01 03:42:37;;;;;;;31.45;17.85;;;-1.00;99.90;;;;;;5099360;28;20042;-70
2023/12/01 03:45:06;;;;;;;29.75;16.73;;;-0.90;99.90;;;;;;5097032;28;20040;-69
2023/12/01 03:47:33;;;;;;;29.05;16.05;;;-0.90;99.90;;;;;;5098103;28;20092;-69
2023/12/01 03:49:59;;;;;;;30.77;18.13;;;-0.90;99.90;;;;;;5098520;28;20115;-70
2023/12/01 03:52:25;;;;;;;34.80;18.10;;;-0.90;99.90;;;;;;5099896;28;20069;-70
2023/12/01 03:54:50;;;;;;;32.05;17.50;;;-1.00;99.90;;;;;;5102174;27;20036;-70
2023/12/01 03:57:16;;;;;;;28.20;15.98;;;-1.10;99.90;;;;;;5099107;28;20554;-69
2023/12/01 03:59:41;;;;;;;29.65;15.52;;;-1.20;99.90;;;;;;5100665;28;20131;-70
2023/12/01 04:02:07;;;;;;;25.67;14.57;;;-1.30;99.90;;;;;;5102111;28;20039;-70
2023/12/01 04:04:33;;;;;;;24.85;14.10;;;-1.40;99.90;;;;;;5117501;27;20101;-70
2023/12/01 04:06:58;;;;;;;24.83;14.98;;;-1.50;99.90;;;;;;5100583;28;20036;-70
2023/12/01 04:09:24;;;;;;;30.67;16.13;;;-1.60;99.90;;;;;;5098158;28;20043;-70
2023/12/01 04:11:54;;;;;;;30.05;16.58;;;-1.60;99.90;;;;;;5099470;28;20424;-70
2023/12/01 04:14:19;;;;;;;27.70;15.68;;;-1.60;99.90;;;;;;5098833;28;20051;-69
2023/12/01 04:16:47;;;;;;;31.45;16.02;;;-1.50;99.90;;;;;;5103486;28;20043;-70
2023/12/01 04:19:12;;;;;;;31.25;17.65;;;-1.50;99.90;;;;;;5094848;28;20127;-69
2023/12/01 04:21:38;;;;;;;32.45;17.90;;;-1.50;99.90;;;;;;5097947;28;20115;-69
2023/12/01 04:24:06;;;;;;;28.15;16.70;;;-1.50;99.90;;;;;;5101282;28;20051;-70
2023/12/01 04:26:32;;;;;;;28.63;16.13;;;-1.50;99.90;;;;;;5095287;27;20101;-70
2023/12/01 04:28:58;;;;;;;33.35;17.13;;;-1.60;99.90;;;;;;5095684;28;20444;-70
2023/12/01 04:31:23;;;;;;;32.58;17.50;;;-1.60;99.90;;;;;;5100295;28;20093;-69
2023/12/01 04:33:49;;;;;;;32.30;17.52;;;-1.60;99.90;;;;;;5097753;28;20055;-69
2023/12/01 04:36:14;;;;;;;31.40;16.23;;;-1.70;99.90;;;;;;5098552;28;20058;-70
2023/12/01 04:38:40;;;;;;;28.08;16.25;;;-1.60;99.90;;;;;;5080033;28;20047;-69
2023/12/01 04:41:09;;;;;;;34.92;18.73;;;-1.70;99.90;;;;;;5094071;28;20062;-69
2023/12/01 04:43:37;;;;;;;31.48;16.58;;;-1.70;99.90;;;;;;5098336;27;20048;-69
2023/12/01 04:46:03;;;;;;;28.02;16.08;;;-1.70;99.90;;;;;;5095782;28;20101;-69
2023/12/01 04:48:28;;;;;;;30.15;16.48;;;-1.80;99.90;;;;;;5095630;28;20047;-70
2023/12/01 04:50:54;;;;;;;30.30;16.40;;;-1.80;99.90;;;;;;5097229;28;20689;-70
2023/12/01 04:53:19;;;;;;;30.05;16.10;;;-1.80;99.90;;;;;;5097206;28;20043;-69
2023/12/01 04:55:48;;;;;;;30.92;16.17;;;-1.90;99.90;;;;;;5096420;28;20401;-69
2023/12/01 04:58:14;;;;;;;33.75;16.33;;;-1.90;99.90;;;;;;5096531;28;20051;-70
2023/12/01 05:00:40;;;;;;;29.38;15.63;;;-1.90;99.90;;;;;;5095817;27;20080;-70
2023/12/01 05:03:07;;;;;;;29.50;17.23;;;-1.90;99.90;;;;;;5097482;27;20036;-70
2023/12/01 05:05:35;;;;;;;29.42;16.88;;;-2.00;99.90;;;;;;5097990;28;20101;-70
2023/12/01 05:08:04;;;;;;;27.88;16.55;;;-1.90;99.90;;;;;;5095989;28;20482;-69
2023/12/01 05:10:32;;;;;;;30.85;16.85;;;-2.00;99.90;;;;;;5096333;28;20043;-70
2023/12/01 05:13:00;;;;;;;32.55;17.27;;;-2.00;99.90;;;;;;5096289;28;20048;-70
2023/12/01 05:15:28;;;;;;;31.38;17.65;;;-2.00;99.90;;;;;;5114387;27;20043;-69
2023/12/01 05:17:57;;;;;;;32.20;16.52;;;-2.00;99.90;;;;;;5096511;27;20543;-70
2023/12/01 05:20:25;;;;;;;28.98;16.40;;;-2.10;99.90;;;;;;5096556;28;20092;-70
2023/12/01 05:22:52;;;;;;;28.83;16.23;;;-2.00;99.90;;;;;;5100646;28;20428;-69
2023/12/01 05:25:19;;;;;;;31.38;16.02;;;-2.10;99.90;;;;;;5104658;27;20052;-70
2023/12/01 05:27:50;;;;;;;29.17;16.00;;;-2.10;99.90;;;;;;5102252;27;20389;-70
2023/12/01 05:30:18;;;;;;;31.92;16.88;;;-2.10;99.90;;;;;;5101031;27;20040;-70
2023/12/01 05:32:49;;;;;;;32.90;16.92;;;-2.10;99.90;;;;;;5095544;27;20036;-69
2023/12/01 05:35:15;;;;;;;32.78;17.52;;;-2.20;99.90;;;;;;5100719;28;20085;-69
2023/12/01 05:37:47;;;;;;;36.40;18.08;;;-2.10;99.90;;;;;;5098181;28;20039;-69
2023/12/01 05:40:14;;;;;;;31.17;16.75;;;-2.10;99.90;;;;;;5101212;27;20056;-70
2023/12/01 05:42:41;;;;;;;41.80;23.05;;;-2.20;99.90;;;;;;5099252;28;20024;-70
2023/12/01 05:45:12;;;;;;;55.47;29.40;;;-2.20;99.90;;;;;;5096011;28;20502;-69
2023/12/01 05:47:43;;;;;;;42.65;22.70;;;-2.20;99.90;;;;;;5130435;27;20078;-69
2023/12/01 05:50:12;;;;;;;41.33;24.30;;;-2.20;99.90;;;;;;5096944;27;20506;-70
2023/12/01 05:52:39;;;;;;;46.55;24.02;;;-2.20;99.90;;;;;;5096592;28;20040;-69
2023/12/01 05:55:10;;;;;;;41.65;23.65;;;-2.20;99.90;;;;;;5097369;28;20036;-69
2023/12/01 05:57:36;;;;;;;42.67;23.52;;;-2.30;99.90;;;;;;5096523;28;20111;-69
2023/12/01 06:00:03;;;;;;;45.50;25.17;;;-2.30;99.90;;;;;;5092107;27;20462;-69
2023/12/01 06:02:28;;;;;;;41.33;21.60;;;-2.30;99.90;;;;;;5094402;28;20142;-69
2023/12/01 06:04:57;;;;;;;36.92;20.42;;;-2.30;99.90;;;;;;5092242;28;20478;-69
2023/12/01 06:07:23;;;;;;;37.50;18.90;;;-2.30;99.90;;;;;;5096768;28;20066;-69
2023/12/01 06:09:49;;;;;;;37.05;19.23;;;-2.30;99.90;;;;;;5092951;28;20488;-69
2023/12/01 06:12:14;;;;;;;38.20;20.25;;;-2.40;99.90;;;;;;5095042;27;20047;-69
2023/12/01 06:14:40;;;;;;;35.40;17.90;;;-2.30;99.90;;;;;;5088823;28;20123;-69
2023/12/01 06:17:07;;;;;;;39.10;18.67;;;-2.50;99.90;;;;;;5104555;28;20034;-69
2023/12/01 06:19:32;;;;;;;37.17;19.02;;;-2.40;99.90;;;;;;5093972;28;20042;-69
2023/12/01 06:21:58;;;;;;;33.28;17.20;;;-2.40;99.90;;;;;;5091238;28;20512;-69
2023/12/01 06:24:24;;;;;;;36.10;19.67;;;-2.50;99.90;;;;;;5094104;28;20392;-69
2023/12/01 06:26:52;;;;;;;34.95;17.63;;;-2.50;99.90;;;;;;5094995;28;20358;-69
2023/12/01 06:29:18;;;;;;;36.72;18.73;;;-2.50;99.90;;;;;;5092560;28;20048;-69
2023/12/01 06:31:44;;;;;;;38.13;18.25;;;-2.50;99.90;;;;;;5097950;28;20062;-69
2023/12/01 06:34:10;;;;;;;37.33;17.20;;;-2.40;99.90;;;;;;5098800;28;20047;-69
2023/12/01 06:36:36;;;;;;;36.38;18.80;;;-2.40;99.90;;;;;;5093655;28;20484;-69
2023/12/01 06:39:10;;;;;;;34.13;16.80;;;-2.50;99.90;;;;;;5098494;28;20042;-69
2023/12/01 06:41:36;;;;;;;35.50;18.60;;;-2.50;99.90;;;;;;5097550;28;20038;-70
2023/12/01 06:44:02;;;;;;;37.40;17.48;;;-2.50;99.90;;;;;;5098242;28;20055;-70
2023/12/01 06:46:28;;;;;;;34.05;17.08;;;-2.50;99.90;;;;;;5097424;28;20517;-69
2023/12/01 06:48:54;;;;;;;37.45;17.88;;;-2.50;99.90;;;;;;5091542;28;20052;-69
2023/12/01 06:51:19;;;;;;;30.65;17.13;;;-2.60;99.90;;;;;;5095800;28;20074;-70
2023/12/01 06:53:45;;;;;;;32.67;17.40;;;-2.60;99.90;;;;;;5094897;28;20063;-70
2023/12/01 06:56:10;;;;;;;36.83;18.00;;;-2.60;99.90;;;;;;5095194;28;20144;-70
2023/12/01 06:58:36;;;;;;;31.05;17.23;;;-2.60;99.90;;;;;;5097947;28;20375;-70
2023/12/01 07:01:02;;;;;;;33.08;17.88;;;-2.60;99.90;;;;;;5097450;28;20166;-70
2023/12/01 07:03:29;;;;;;;35.88;17.92;;;-2.70;99.90;;;;;;5098229;28;20043;-69
2023/12/01 07:05:55;;;;;;;31.33;15.95;;;-2.60;99.90;;;;;;5095033;28;20085;-69
2023/12/01 07:08:21;;;;;;;31.25;15.55;;;-2.60;99.90;;;;;;5097151;28;20433;-70
2023/12/01 07:10:47;;;;;;;32.45;16.52;;;-2.70;99.90;;;;;;5098587;28;20367;-70
2023/12/01 07:13:13;;;;;;;32.13;16.15;;;-2.70;99.90;;;;;;5103683;27;20473;-70
2023/12/01 07:15:39;;;;;;;33.15;17.23;;;-2.70;99.90;;;;;;5128182;27;20596;-70
2023/12/01 07:18:05;;;;;;;34.10;16.83;;;-2.70;99.90;;;;;;5083157;28;20055;-69
2023/12/01 07:20:33;;;;;;;36.55;17.55;;;-2.70;99.90;;;;;;5082897;28;20039;-69
2023/12/01 07:22:59;;;;;;;30.33;15.50;;;-1.80;99.90;;;;;;5100463;27;20044;-69
2023/12/01 07:25:25;;;;;;;32.40;16.27;;;-2.80;99.90;;;;;;5104087;27;20088;-70
2023/12/01 07:27:59;;;;;;;29.17;15.90;;;-2.70;99.90;;;;;;5101795;28;20439;-69
2023/12/01 07:30:27;;;;;;;30.67;15.63;;;-2.80;99.90;;;;;;5100470;28;20047;-69
2023/12/01 07:32:53;;;;;;;31.77;16.98;;;-2.70;99.90;;;;;;5103658;28;20043;-69
2023/12/01 07:35:19;;;;;;;30.02;16.00;;;-2.80;99.90;;;;;;5101019;27;20035;-70
2023/12/01 07:37:51;;;;;;;32.33;15.68;;;-2.70;99.90;;;;;;5098881;28;20405;-69
2023/12/01 07:40:21;;;;;;;30.77;16.45;;;-2.80;99.90;;;;;;5099220;28;20051;-69
2023/12/01 07:42:47;;;;;;;30.52;15.25;;;-2.80;99.90;;;;;;5096211;28;20635;-69
2023/12/01 07:45:17;;;;;;;31.95;15.23;;;-2.70;99.90;;;;;;5101735;27;20139;-69
2023/12/01 07:48:03;;;;;;;30.08;14.68;;;-2.70;99.90;;;;;;5099810;28;20036;-69
2023/12/01 07:50:29;;;;;;;30.15;15.25;;;-2.70;99.90;;;;;;5094126;27;20107;-70
2023/12/01 07:52:55;;;;;;;29.70;15.18;;;-2.70;99.90;;;;;;5101947;27;20051;-69
2023/12/01 07:55:21;;;;;;;27.13;15.15;;;-2.70;99.90;;;;;;5084148;27;20075;-69
2023/12/01 07:57:46;;;;;;;29.05;15.13;;;-2.70;99.90;;;;;;5100891;27;20470;-69
2023/12/01 08:00:19;;;;;;;30.13;15.45;;;-2.70;99.90;;;;;;5103515;27;20047;-69
2023/12/01 08:02:52;;;;;;;29.48;15.05;;;-2.70;99.90;;;;;;5098924;28;20046;-69
2023/12/01 08:05:17;;;;;;;25.13;13.10;;;-2.70;99.90;;;;;;5100769;27;20696;-69
2023/12/01 08:07:45;;;;;;;30.42;15.02;;;-2.70;99.90;;;;;;5104670;27;20028;-70
2023/12/01 08:10:15;;;;;;;28.45;14.90;;;-2.60;99.90;;;;;;5099444;28;20036;-70
2023/12/01 08:12:47;;;;;;;27.10;15.48;;;-2.60;99.90;;;;;;5102669;27;20429;-70
2023/12/01 08:15:13;;;;;;;30.42;14.88;;;-2.60;99.90;;;;;;5106457;28;20756;-70
2023/12/01 08:17:39;;;;;;;29.05;14.02;;;-2.60;99.90;;;;;;5097816;27;20106;-69
2023/12/01 08:20:06;;;;;;;26.88;13.85;;;-2.50;99.90;;;;;;5095699;28;20428;-69
2023/12/01 08:22:33;;;;;;;28.48;15.52;;;-2.60;99.90;;;;;;5103095;28;20097;-69
2023/12/01 08:25:00;;;;;;;32.33;15.60;;;-2.50;99.90;;;;;;5097243;28;20039;-69
2023/12/01 08:27:25;;;;;;;27.70;14.55;;;-2.60;99.90;;;;;;5098914;27;20076;-69
2023/12/01 08:29:52;;;;;;;27.27;14.68;;;-2.50;99.90;;;;;;5097965;28;20480;-69
2023/12/01 08:32:17;;;;;;;30.70;16.27;;;-2.40;99.90;;;;;;5097111;27;20052;-69
2023/12/01 08:34:44;;;;;;;30.60;15.80;;;-2.50;99.90;;;;;;5098180;27;20066;-69
2023/12/01 08:37:10;;;;;;;27.65;14.35;;;-2.40;99.90;;;;;;5095481;27;20051;-70
2023/12/01 08:39:36;;;;;;;28.23;15.40;;;-2.40;99.90;;;;;;5096776;28;20036;-69
2023/12/01 08:42:02;;;;;;;32.35;17.85;;;-2.40;99.90;;;;;;5099481;28;20042;-69
2023/12/01 08:44:28;;;;;;;30.20;15.70;;;-2.30;99.90;;;;;;5097892;28;20082;-69
2023/12/01 08:46:54;;;;;;;27.08;15.13;;;-2.40;99.90;;;;;;5094051;28;20490;-69
2023/12/01 08:49:19;;;;;;;25.48;14.32;;;-2.40;99.90;;;;;;5097727;27;20074;-69
2023/12/01 08:51:45;;;;;;;27.08;13.32;;;-2.30;99.90;;;;;;5096331;28;20130;-69
2023/12/01 08:54:11;;;;;;;30.20;15.68;;;-2.30;99.90;;;;;;5100219;27;20700;-69
2023/12/01 08:56:36;;;;;;;27.70;14.80;;;-2.20;99.90;;;;;;5097708;27;20050;-69
2023/12/01 08:59:02;;;;;;;27.00;13.82;;;-2.20;99.90;;;;;;5093769;27;20478;-69
2023/12/01 09:01:28;;;;;;;27.00;14.77;;;-2.20;99.90;;;;;;5095712;28;20482;-69
2023/12/01 09:03:53;;;;;;;28.77;14.95;;;-2.10;99.90;;;;;;5094179;28;20446;-70
2023/12/01 09:06:19;;;;;;;25.92;13.85;;;-2.10;99.90;;;;;;5095391;27;20043;-69
2023/12/01 09:08:45;;;;;;;25.25;13.80;;;-2.20;99.90;;;;;;5099604;27;20154;-69
2023/12/01 09:11:10;;;;;;;24.70;13.85;;;-2.10;99.90;;;;;;5096260;27;20040;-69
2023/12/01 09:13:37;;;;;;;26.75;15.15;;;-2.00;99.90;;;;;;5096005;27;20089;-69
2023/12/01 09:16:03;;;;;;;22.85;13.07;;;-2.00;99.90;;;;;;5097783;27;20054;-69
2023/12/01 09:18:32;;;;;;;25.63;13.73;;;-1.90;99.90;;;;;;5097098;27;20132;-70
2023/12/01 09:20:59;;;;;;;22.75;13.43;;;-1.90;99.90;;;;;;5098137;27;20130;-70
2023/12/01 09:23:24;;;;;;;22.73;12.70;;;-1.80;99.90;;;;;;5097426;28;20115;-69
2023/12/01 09:25:51;;;;;;;25.58;12.07;;;-1.80;99.90;;;;;;5099213;28;20078;-69
2023/12/01 09:28:16;;;;;;;23.65;14.35;;;-1.80;99.90;;;;;;5132645;27;20039;-69
2023/12/01 09:30:42;;;;;;;20.88;13.15;;;-1.80;99.90;;;;;;5094871;28;20117;-69
2023/12/01 09:33:08;;;;;;;22.77;12.88;;;-1.70;99.90;;;;;;5101009;28;20032;-69
2023/12/01 09:35:33;;;;;;;23.33;12.88;;;-1.80;99.90;;;;;;5096467;28;20043;-69
2023/12/01 09:37:59;;;;;;;19.38;12.05;;;-1.70;99.90;;;;;;5080907;28;20054;-69
2023/12/01 09:40:25;;;;;;;19.77;10.80;;;-1.80;99.90;;;;;;5095932;28;20031;-69
2023/12/01 09:42:52;;;;;;;20.17;11.88;;;-1.70;99.90;;;;;;5098194;28;20633;-69
2023/12/01 09:45:23;;;;;;;21.13;11.68;;;-1.80;99.90;;;;;;5098078;28;20043;-70
2023/12/01 09:47:58;;;;;;;19.10;12.23;;;-1.70;99.90;;;;;;5099403;28;20046;-68
2023/12/01 09:50:24;;;;;;;19.33;11.63;;;-1.70;99.90;;;;;;5094555;28;20123;-69
2023/12/01 09:52:53;;;;;;;18.35;11.20;;;-1.70;99.90;;;;;;5099073;28;20393;-69
2023/12/01 09:55:20;;;;;;;17.67;11.32;;;-1.60;99.90;;;;;;5094598;27;20361;-69
2023/12/01 09:57:45;;;;;;;19.30;12.02;;;-1.70;99.90;;;;;;5096345;28;20036;-69
2023/12/01 10:00:11;;;;;;;19.02;11.57;;;-1.60;99.90;;;;;;5085631;28;20054;-69
2023/12/01 10:02:41;;;;;;;17.90;11.85;;;-1.50;99.90;;;;;;5100320;28;20067;-69
2023/12/01 10:05:07;;;;;;;18.40;11.95;;;-1.50;99.90;;;;;;5097065;28;20486;-70
2023/12/01 10:07:36;;;;;;;18.85;12.32;;;-1.60;99.90;;;;;;5096467;28;20028;-70
2023/12/01 10:10:19;;;;;;;18.52;11.30;;;-1.50;99.90;;;;;;5101823;28;20066;-70
2023/12/01 10:13:07;;;;;;;16.05;11.63;;;-1.40;99.90;;;;;;5095842;28;20520;-69
2023/12/01 10:15:38;;;;;;;19.38;11.68;;;-1.30;99.90;;;;;;5092843;28;20038;-70
2023/12/01 10:18:23;;;;;;;17.10;11.55;;;-1.30;99.90;;;;;;5092620;28;20044;-70
2023/12/01 10:21:02;;;;;;;16.50;10.73;;;-1.30;99.90;;;;;;5098532;28;20447;-69
2023/12/01 10:23:29;;;;;;;13.55;9.15;;;-1.30;99.90;;;;;;5096805;28;20044;-69
2023/12/01 10:25:56;;;;;;;14.45;8.40;;;-1.20;99.90;;;;;;5128452;27;20047;-69
2023/12/01 10:28:25;;;;;;;15.32;10.13;;;-1.20;99.90;;;;;;5095498;28;20051;-69
2023/12/01 10:30:57;;;;;;;14.45;9.35;;;-1.10;99.90;;;;;;5097000;28;20040;-70
2023/12/01 10:33:25;;;;;;;13.27;9.23;;;-1.00;99.90;;;;;;5097647;28;20523;-70
2023/12/01 10:36:05;;;;;;;14.63;9.45;;;-1.00;99.90;;;;;;5095589;28;20043;-69
2023/12/01 10:38:33;;;;;;;12.68;9.13;;;-0.90;99.90;;;;;;5096146;28;20369;-69
2023/12/01 10:40:59;;;;;;;14.00;9.57;;;-0.90;99.90;;;;;;5094597;28;20035;-70
2023/12/01 10:43:27;;;;;;;12.77;8.63;;;-0.80;99.90;;;;;;5093562;28;20028;-70
2023/12/01 10:45:54;;;;;;;13.65;9.10;;;-0.70;99.90;;;;;;5095733;28;20050;-69
2023/12/01 10:48:21;;;;;;;13.32;9.00;;;-0.70;99.90;;;;;;5105043;28;20108;-69
2023/12/01 10:50:49;;;;;;;14.38;8.73;;;-0.60;99.90;;;;;;5116312;27;20051;-70
2023/12/01 10:53:16;;;;;;;11.68;8.35;;;-0.60;99.90;;;;;;5106793;28;20039;-69
2023/12/01 10:55:48;;;;;;;12.88;8.55;;;-0.50;99.90;;;;;;5133342;27;20043;-70
2023/12/01 10:58:25;;;;;;;11.77;8.45;;;-0.50;99.90;;;;;;5138156;27;20036;-69
2023/12/01 11:00:52;;;;;;;12.15;7.78;;;-0.50;99.90;;;;;;5114858;27;20044;-69
2023/12/01 11:03:20;;;;;;;13.63;10.00;;;-0.40;99.90;;;;;;5100434;28;20071;-69
2023/12/01 11:05:52;;;;;;;12.18;8.93;;;-0.40;99.90;;;;;;5099945;28;20071;-69
2023/12/01 11:08:19;;;;;;;12.23;8.85;;;-0.40;99.90;;;;;;5102511;27;20417;-69
2023/12/01 11:10:51;;;;;;;11.30;8.07;;;-0.20;99.90;;;;;;5099160;28;20051;-69
2023/12/01 11:13:45;;;;;;;13.13;8.40;;;-0.20;99.90;;;;;;5100590;28;20036;-70
2023/12/01 11:16:11;;;;;;;14.35;8.55;;;0.00;99.90;;;;;;5099783;28;20113;-70
2023/12/01 11:18:37;;;;;;;14.05;9.10;;;0.10;99.90;;;;;;5100362;28;20047;-70
2023/12/01 11:21:05;;;;;;;11.52;8.27;;;0.20;99.90;;;;;;5098724;28;20043;-70
2023/12/01 11:23:33;;;;;;;12.15;8.95;;;0.20;99.90;;;;;;5100202;28;20581;-70
2023/12/01 11:26:17;;;;;;;13.30;9.43;;;0.20;99.90;;;;;;5132990;27;21358;-69
2023/12/01 11:28:45;;;;;;;11.95;8.40;;;0.30;99.90;;;;;;5100920;27;20611;-69
2023/12/01 11:31:30;;;;;;;12.98;9.00;;;0.30;99.90;;;;;;5097609;28;20082;-69
2023/12/01 11:33:57;;;;;;;9.93;7.88;;;0.30;99.90;;;;;;5098847;28;20382;-69
2023/12/01 11:36:27;;;;;;;12.90;9.40;;;0.30;99.90;;;;;;5100250;28;20131;-69
2023/12/01 11:39:16;;;;;;;12.30;8.93;;;0.30;99.90;;;;;;5132474;27;20432;-69
2023/12/01 11:41:42;;;;;;;12.77;9.15;;;0.20;99.90;;;;;;5102931;27;20047;-70
2023/12/01 11:44:16;;;;;;;11.32;8.25;;;0.10;99.90;;;;;;5103147;27;20065;-70
2023/12/01 11:46:43;;;;;;;13.00;9.32;;;0.20;99.90;;;;;;5133254;27;20455;-70
2023/12/01 11:49:14;;;;;;;12.15;8.75;;;0.10;99.90;;;;;;5102290;28;20071;-70
2023/12/01 11:51:43;;;;;;;11.27;9.23;;;0.10;99.90;;;;;;5105030;27;20051;-69
2023/12/01 11:54:11;;;;;;;13.80;9.32;;;0.00;99.90;;;;;;5103290;27;20047;-69
2023/12/01 11:56:37;;;;;;;13.80;10.32;;;-0.10;99.90;;;;;;5103814;28;20388;-69
2023/12/01 11:59:02;;;;;;;12.23;9.75;;;0.00;99.90;;;;;;5101676;27;20040;-70
2023/12/01 12:01:30;;;;;;;12.95;9.98;;;0.10;99.90;;;;;;5101075;28;20135;-70
2023/12/01 12:03:57;;;;;;;13.07;9.77;;;0.10;99.90;;;;;;5104224;27;20053;-69
2023/12/01 12:06:24;;;;;;;13.90;10.25;;;0.20;99.90;;;;;;5102875;28;20050;-70
2023/12/01 12:08:51;;;;;;;14.63;10.25;;;0.00;99.90;;;;;;5100766;28;20092;-70
2023/12/01 12:11:18;;;;;;;12.98;9.20;;;0.00;99.90;;;;;;5100098;27;20509;-70
2023/12/01 12:13:44;;;;;;;13.80;10.18;;;0.00;99.90;;;;;;5130097;27;20040;-70
2023/12/01 12:16:13;;;;;;;14.38;9.95;;;0.00;99.90;;;;;;5102976;27;20058;-70
2023/12/01 12:18:39;;;;;;;11.85;9.07;;;-0.10;99.90;;;;;;5102212;28;20428;-70
2023/12/01 12:21:05;;;;;;;14.35;10.00;;;-0.10;99.90;;;;;;5104982;27;20040;-70
2023/12/01 12:23:32;;;;;;;13.38;9.25;;;-0.20;99.90;;;;;;5129286;27;20032;-70
2023/12/01 12:26:21;;;;;;;14.32;10.02;;;-0.20;99.90;;;;;;5131460;27;20126;-70
2023/12/01 12:28:53;;;;;;;13.18;9.65;;;-0.30;99.90;;;;;;5101606;28;20359;-70
2023/12/01 12:31:19;;;;;;;12.50;9.40;;;-0.20;99.90;;;;;;5129836;27;20052;-69